Time;durP1;ratioP1;P1;durP2;ratioP2;P2;SDS_P1;SDS_P2;PMS_P1;PMS_P2;Temp;Humidity;BMP_temperature;BMP_pressure;BME280_temperature;BME280_humidity;BME280_pressure;Samples;Min_cycle;Max_cycle;Signal;HPM_P1;HPM_P2
2020/12/13 00:01:56;;;;;;;41.90;25.40;;;;;;;7.85;100.00;99881.78;10160159;29;20043;-69
2020/12/13 00:06:57;;;;;;;39.08;25.92;;;;;;;7.81;100.00;99881.97;10173543;29;20044;-69
2020/12/13 00:12:02;;;;;;;43.47;28.55;;;;;;;7.79;100.00;99889.03;10165103;29;20051;-69
2020/12/13 00:17:03;;;;;;;39.08;25.50;;;;;;;7.79;100.00;99889.91;10172967;29;20052;-69
2020/12/13 00:22:04;;;;;;;38.17;23.20;;;;;;;7.83;100.00;99901.13;10172356;29;20040;-68
2020/12/13 00:27:06;;;;;;;32.20;21.70;;;;;;;7.83;100.00;99901.13;10172577;29;20064;-69
2020/12/13 00:32:07;;;;;;;33.38;22.55;;;;;;;7.76;100.00;99899.69;10171944;29;20048;-68
2020/12/13 00:37:08;;;;;;;37.88;26.35;;;;;;;7.71;100.00;99899.88;10172012;29;20075;-68
2020/12/13 00:42:09;;;;;;;33.60;21.70;;;;;;;7.73;100.00;99911.16;10177364;29;20496;-68
2020/12/13 00:47:11;;;;;;;33.17;23.02;;;;;;;7.71;100.00;99909.50;10179327;29;20056;-69
2020/12/13 00:52:12;;;;;;;33.95;23.48;;;;;;;7.80;100.00;99932.72;10179666;29;20147;-69
2020/12/13 00:57:14;;;;;;;37.05;25.92;;;;;;;7.89;100.00;99946.28;10179083;29;20064;-69
2020/12/13 01:02:15;;;;;;;46.47;29.52;;;;;;;7.97;100.00;99946.78;10178338;29;20447;-69
2020/12/13 01:07:16;;;;;;;47.20;27.45;;;;;;;8.07;100.00;99949.88;10176081;29;20039;-69
2020/12/13 01:12:19;;;;;;;47.08;30.02;;;;;;;8.08;100.00;99958.59;10177123;29;20044;-69
2020/12/13 01:17:20;;;;;;;45.20;29.63;;;;;;;8.03;100.00;99952.72;10177054;29;20412;-69
2020/12/13 01:22:23;;;;;;;37.22;25.38;;;;;;;8.12;100.00;99968.84;10178323;29;20051;-69
2020/12/13 01:27:24;;;;;;;35.00;24.50;;;;;;;8.15;100.00;99958.25;10178965;29;20483;-69
2020/12/13 01:32:25;;;;;;;42.67;26.92;;;;;;;8.14;100.00;99960.94;10177975;29;20407;-69
2020/12/13 01:37:27;;;;;;;41.15;28.38;;;;;;;8.08;100.00;99974.31;10178632;29;20055;-69
2020/12/13 01:42:28;;;;;;;40.25;26.25;;;;;;;8.13;100.00;99970.56;10179870;29;20104;-68
2020/12/13 01:47:30;;;;;;;40.17;25.50;;;;;;;8.03;100.00;99981.56;10177931;29;20051;-69
2020/12/13 01:57:55;;;;;;;30.50;22.10;;;;;;;8.07;100.00;99989.22;10179425;29;20373;-69
2020/12/13 02:03:01;;;;;;;28.13;21.08;;;;;;;8.11;100.00;99987.31;10178546;29;20040;-69
2020/12/13 02:08:02;;;;;;;30.92;22.88;;;;;;;8.13;100.00;99988.06;10178467;29;20407;-69
2020/12/13 02:13:04;;;;;;;27.35;20.73;;;;;;;8.08;100.00;99985.66;10178209;29;20047;-69
2020/12/13 02:18:05;;;;;;;28.90;21.10;;;;;;;8.15;100.00;100000.22;10177145;29;20515;-69
2020/12/13 02:23:07;;;;;;;30.38;23.15;;;;;;;8.09;100.00;99994.41;10178349;29;20044;-69
2020/12/13 02:28:10;;;;;;;30.02;21.58;;;;;;;8.09;100.00;100005.75;10172338;29;20500;-69
2020/12/13 02:33:11;;;;;;;31.33;23.17;;;;;;;8.15;100.00;100018.59;10176947;29;20044;-68
2020/12/13 02:38:12;;;;;;;29.73;21.75;;;;;;;8.06;100.00;100015.50;10162339;29;20075;-69
2020/12/13 02:43:13;;;;;;;25.40;19.65;;;;;;;8.10;100.00;100025.81;10140668;29;20083;-69
2020/12/13 02:48:14;;;;;;;25.45;20.95;;;;;;;8.01;100.00;100020.97;10176253;29;20044;-69
2020/12/13 02:53:16;;;;;;;31.80;23.52;;;;;;;8.02;100.00;100027.06;10151136;29;20093;-69
2020/12/13 02:58:17;;;;;;;31.00;22.73;;;;;;;8.02;100.00;100025.28;10160834;29;20052;-69
2020/12/13 03:03:18;;;;;;;28.77;22.60;;;;;;;8.05;100.00;100030.38;10175486;29;20044;-68
2020/12/13 03:08:19;;;;;;;29.35;22.48;;;;;;;8.02;100.00;100022.66;10176164;29;20099;-69
2020/12/13 03:13:21;;;;;;;32.65;24.17;;;;;;;8.00;100.00;100035.00;10176643;29;20141;-69
2020/12/13 03:18:22;;;;;;;32.20;25.25;;;;;;;7.95;100.00;100040.41;10174866;29;20048;-69
2020/12/13 03:23:24;;;;;;;26.02;20.25;;;;;;;7.91;100.00;100053.75;10157714;29;20116;-69
2020/12/13 03:28:26;;;;;;;29.75;22.35;;;;;;;7.80;100.00;100053.31;10167746;29;20084;-69
2020/12/13 03:33:27;;;;;;;31.27;22.80;;;;;;;7.79;100.00;100051.63;10174707;29;20488;-69
2020/12/13 03:38:28;;;;;;;21.70;17.30;;;;;;;7.86;100.00;100061.81;10174973;29;20116;-69
2020/12/13 03:43:30;;;;;;;22.60;19.23;;;;;;;7.83;100.00;100072.41;10151961;29;20511;-69
2020/12/13 03:48:31;;;;;;;20.75;16.65;;;;;;;7.82;100.00;100075.97;10173714;29;20052;-69
2020/12/13 03:53:32;;;;;;;23.45;18.95;;;;;;;7.71;100.00;100072.06;10165702;29;20408;-69
2020/12/13 03:58:33;;;;;;;23.15;18.50;;;;;;;7.74;100.00;100080.66;10170216;29;20036;-69
2020/12/13 04:03:34;;;;;;;24.63;18.30;;;;;;;7.80;100.00;100077.78;10150120;29;20136;-69
2020/12/13 04:08:35;;;;;;;21.98;16.27;;;;;;;7.81;100.00;100089.13;10174609;29;20043;-69
2020/12/13 04:13:36;;;;;;;24.65;17.98;;;;;;;7.85;100.00;100098.59;10177751;29;20407;-69
2020/12/13 04:18:37;;;;;;;18.98;16.02;;;;;;;7.84;100.00;100102.13;10187407;29;20495;-69
2020/12/13 04:23:38;;;;;;;17.15;13.57;;;;;;;7.84;100.00;100099.50;10185395;29;20044;-69
2020/12/13 04:28:39;;;;;;;16.98;11.65;;;;;;;7.81;100.00;100107.47;10186600;29;20091;-69
2020/12/13 04:33:41;;;;;;;16.83;11.88;;;;;;;7.85;100.00;100109.09;10186853;29;20048;-69
2020/12/13 04:38:42;;;;;;;14.23;11.35;;;;;;;7.86;100.00;100116.03;10186995;29;20056;-69
2020/12/13 04:43:43;;;;;;;14.95;10.90;;;;;;;7.80;100.00;100105.78;10185139;29;20049;-69
2020/12/13 04:48:45;;;;;;;13.05;9.48;;;;;;;7.84;100.00;100118.72;10187060;29;20488;-69
2020/12/13 04:53:50;;;;;;;15.80;12.13;;;;;;;7.81;100.00;100112.72;10186463;29;20044;-69
2020/12/13 04:58:51;;;;;;;15.95;11.70;;;;;;;7.82;100.00;100130.16;10185924;29;20048;-69
2020/12/13 05:03:53;;;;;;;14.85;11.35;;;;;;;7.74;100.00;100130.47;10186526;29;20044;-69
2020/12/13 05:08:54;;;;;;;13.05;9.85;;;;;;;7.78;100.00;100139.94;10186168;29;20487;-68
2020/12/13 05:13:55;;;;;;;13.93;11.68;;;;;;;7.72;100.00;100150.66;10186575;29;20160;-68
2020/12/13 05:18:56;;;;;;;13.45;11.05;;;;;;;7.65;100.00;100164.06;10186069;29;20040;-69
2020/12/13 05:23:57;;;;;;;12.55;9.45;;;;;;;7.60;100.00;100165.13;10184827;29;20070;-69
2020/12/13 05:29:02;;;;;;;11.82;9.32;;;;;;;7.63;100.00;100174.63;10177343;29;20401;-69
2020/12/13 05:34:17;;;;;;;14.15;10.75;;;;;;;7.61;100.00;100179.09;10180055;29;20056;-69
2020/12/13 05:39:19;;;;;;;14.52;10.80;;;;;;;7.60;100.00;100191.34;10179315;29;20068;-69
2020/12/13 05:50:23;;;;;;;15.77;12.93;;;;;;;7.59;100.00;100210.59;10179432;29;20056;-68
2020/12/13 05:55:18;;;;;;;18.45;14.30;;;;;;;7.57;100.00;100203.69;10147278;29;20044;-69
2020/12/13 06:00:20;;;;;;;16.20;13.35;;;;;;;7.62;100.00;100207.84;10178768;29;20099;-69
2020/12/13 06:05:22;;;;;;;19.42;13.95;;;;;;;7.61;100.00;100221.03;10179736;29;20075;-69
2020/12/13 06:10:24;;;;;;;21.92;17.35;;;;;;;7.48;100.00;100206.66;10177780;29;20052;-69
2020/12/13 06:15:27;;;;;;;22.77;16.75;;;;;;;7.46;100.00;100216.34;10177271;29;20054;-68
2020/12/13 06:20:29;;;;;;;22.13;16.17;;;;;;;7.40;100.00;100217.44;10178800;29;20048;-68
2020/12/13 06:25:30;;;;;;;24.95;15.02;;;;;;;7.37;100.00;100217.53;10177130;29;20044;-69
2020/12/13 06:30:37;;;;;;;23.35;14.52;;;;;;;7.46;100.00;100221.59;10176093;29;20127;-68
2020/12/13 06:35:42;;;;;;;20.73;14.88;;;;;;;7.43;100.00;100224.34;10176266;29;20059;-68
2020/12/13 06:40:48;;;;;;;24.70;15.02;;;;;;;7.35;100.00;100221.16;10177570;29;20044;-68
2020/12/13 06:46:15;;;;;;;23.83;15.75;;;;;;;7.37;100.00;100219.31;10176924;29;20384;-68
2020/12/13 06:51:26;;;;;;;23.83;15.63;;;;;;;7.28;100.00;100219.69;10177178;29;20046;-68
2020/12/13 06:56:28;;;;;;;26.85;15.70;;;;;;;7.12;100.00;100227.22;10176252;29;20044;-68
2020/12/13 07:01:34;;;;;;;24.88;15.93;;;;;;;7.19;100.00;100241.81;10176454;29;20048;-69
2020/12/13 07:06:43;;;;;;;22.77;15.13;;;;;;;7.16;100.00;100237.53;10176604;29;20066;-69
2020/12/13 07:11:45;;;;;;;22.42;15.50;;;;;;;7.18;100.00;100246.22;10175820;29;20040;-69
2020/12/13 07:16:48;;;;;;;23.10;16.33;;;;;;;7.14;100.00;100243.75;10175501;29;20036;-69
2020/12/13 07:21:58;;;;;;;26.08;15.18;;;;;;;7.04;100.00;100247.59;10174817;29;20048;-69
2020/12/13 07:27:01;;;;;;;21.77;14.68;;;;;;;7.10;100.00;100248.25;10173610;29;20530;-69
2020/12/13 07:32:03;;;;;;;21.70;13.65;;;;;;;7.06;100.00;100254.50;10163416;29;20404;-68
2020/12/13 07:37:05;;;;;;;22.33;13.68;;;;;;;7.03;100.00;100264.25;10173998;29;20115;-68
2020/12/13 07:42:07;;;;;;;18.65;12.25;;;;;;;7.02;100.00;100263.38;10173226;29;20044;-68
2020/12/13 07:47:11;;;;;;;;;;;;;;;7.06;100.00;100264.97;10174565;29;20043;-68
2020/12/13 07:52:13;;;;;;;18.48;11.90;;;;;;;7.02;100.00;100266.00;10152763;29;20002;-69
2020/12/13 07:57:18;;;;;;;19.85;12.35;;;;;;;7.00;100.00;100265.19;10173361;29;20048;-69
2020/12/13 08:02:19;;;;;;;21.58;11.27;;;;;;;7.16;100.00;100266.34;10174927;29;20071;-68
2020/12/13 08:07:21;;;;;;;20.02;12.38;;;;;;;7.10;100.00;100270.97;10174933;29;20048;-68
2020/12/13 08:12:30;;;;;;;18.23;11.50;;;;;;;7.33;100.00;100278.00;10174230;29;20365;-68
2020/12/13 08:17:32;;;;;;;24.35;13.50;;;;;;;7.38;100.00;100291.78;10174423;29;20056;-68
2020/12/13 08:22:37;;;;;;;22.88;15.82;;;;;;;7.39;100.00;100291.72;10173997;29;20131;-69
2020/12/13 08:27:39;;;;;;;;;;;;;;;7.57;100.00;100303.31;10174084;29;20064;-69
2020/12/13 08:32:41;;;;;;;16.35;12.13;;;;;;;7.35;100.00;100295.38;10158346;29;20379;-68
2020/12/13 08:37:56;;;;;;;18.08;12.80;;;;;;;7.42;100.00;100296.00;10151111;29;20051;-68
2020/12/13 08:42:58;;;;;;;21.60;14.20;;;;;;;7.54;100.00;100300.78;10169970;29;20103;-68
2020/12/13 08:48:04;;;;;;;23.77;15.18;;;;;;;7.59;100.00;100304.97;10171691;29;20048;-68
2020/12/13 08:53:21;;;;;;;45.28;34.13;;;;;;;7.80;100.00;100320.81;10172828;29;20054;-68
2020/12/13 08:58:22;;;;;;;21.55;15.75;;;;;;;7.75;100.00;100325.38;10170365;29;20076;-68
2020/12/13 09:03:30;;;;;;;20.70;14.55;;;;;;;7.77;100.00;100332.28;10178670;29;20043;-68
2020/12/13 09:08:31;;;;;;;16.73;11.00;;;;;;;7.87;100.00;100344.13;10179675;29;20059;-69
2020/12/13 09:13:32;;;;;;;15.93;11.10;;;;;;;7.85;100.00;100339.88;10178540;29;20040;-69
2020/12/13 09:18:37;;;;;;;17.15;11.50;;;;;;;7.99;100.00;100348.06;10178070;29;20040;-69
2020/12/13 09:23:38;;;;;;;21.88;15.20;;;;;;;7.81;100.00;100349.59;10179392;29;20072;-69
2020/12/13 09:28:39;;;;;;;22.27;12.88;;;;;;;7.84;100.00;100351.25;10179549;29;20472;-69
2020/12/13 09:33:41;;;;;;;17.83;13.57;;;;;;;7.86;100.00;100354.69;10179854;29;20408;-69
2020/12/13 09:38:42;;;;;;;23.88;18.80;;;;;;;7.71;100.00;100360.47;10178639;29;20047;-69
2020/12/13 09:43:43;;;;;;;32.72;24.88;;;;;;;7.95;100.00;100363.03;10169978;29;20416;-69
2020/12/13 09:48:44;;;;;;;17.55;13.30;;;;;;;7.99;100.00;100362.03;10164892;29;20051;-69
2020/12/13 09:53:46;;;;;;;14.25;10.98;;;;;;;8.08;100.00;100365.22;10172552;29;20051;-69
2020/12/13 09:58:47;;;;;;;12.27;10.45;;;;;;;8.16;100.00;100369.25;10175549;29;20088;-69
2020/12/13 10:03:51;;;;;;;12.00;10.10;;;;;;;9.94;100.00;100400.44;10174790;29;20051;-69
2020/12/13 10:13:57;;;;;;;10.73;8.45;;;;;;;8.45;100.00;100360.31;10174443;29;20040;-69
2020/12/13 10:18:58;;;;;;;13.70;8.95;;;;;;;8.47;100.00;100371.56;10172010;29;20036;-69
2020/12/13 10:24:00;;;;;;;19.35;15.57;;;;;;;8.49;100.00;100377.63;10173637;29;20104;-70
2020/12/13 10:29:02;;;;;;;18.02;11.68;;;;;;;8.45;100.00;100376.06;10172572;29;20524;-69
2020/12/13 10:34:06;;;;;;;9.55;8.10;;;;;;;8.25;100.00;100375.94;10173901;29;20593;-69
2020/12/13 10:39:09;;;;;;;12.02;8.13;;;;;;;8.35;100.00;100382.56;10174725;29;20051;-69
2020/12/13 10:44:12;;;;;;;9.70;7.80;;;;;;;8.25;100.00;100370.69;10174125;29;20078;-69
2020/12/13 10:49:14;;;;;;;13.63;10.38;;;;;;;8.27;100.00;100371.50;10173441;29;20044;-69
2020/12/13 10:54:15;;;;;;;10.23;8.25;;;;;;;8.24;100.00;100369.81;10173078;29;20032;-69
2020/12/13 10:59:17;;;;;;;11.90;8.35;;;;;;;8.24;100.00;100377.69;10139025;29;20365;-69
2020/12/13 11:04:18;;;;;;;14.77;9.43;;;;;;;8.30;100.00;100372.19;10173624;29;20678;-69
2020/12/13 11:09:20;;;;;;;11.48;7.32;;;;;;;8.53;100.00;100387.13;10173597;29;20048;-69
2020/12/13 11:14:21;;;;;;;10.63;7.00;;;;;;;8.74;100.00;100377.50;10174848;29;20040;-69
2020/12/13 11:19:22;;;;;;;8.93;6.78;;;;;;;9.32;100.00;100389.09;10172639;29;20051;-68
2020/12/13 11:24:23;;;;;;;33.08;20.30;;;;;;;12.75;100.00;100416.03;10167749;29;20048;-68
2020/12/13 11:29:24;;;;;;;257.92;213.27;;;;;;;15.10;79.73;100410.47;10174221;29;20499;-68
2020/12/13 11:34:26;;;;;;;10.18;6.28;;;;;;;16.25;70.74;100389.22;10162544;29;20040;-68
2020/12/13 11:39:27;;;;;;;10.02;4.32;;;;;;;17.90;61.86;100392.94;10170358;29;20048;-68
2020/12/13 11:44:28;;;;;;;6.60;3.60;;;;;;;15.78;63.54;100342.09;10152469;29;20056;-69
2020/12/13 11:49:29;;;;;;;6.25;3.63;;;;;;;16.52;63.44;100361.63;10171168;29;20084;-69
2020/12/13 11:54:30;;;;;;;6.75;4.05;;;;;;;17.11;60.19;100356.38;10173614;29;20044;-69
2020/12/13 11:59:32;;;;;;;5.97;2.85;;;;;;;16.17;61.06;100337.56;10173068;29;20040;-69
2020/12/13 12:04:33;;;;;;;8.13;3.10;;;;;;;17.22;60.89;100362.59;10172575;29;20111;-69
2020/12/13 12:09:34;;;;;;;4.88;3.13;;;;;;;12.31;72.82;100293.47;10172118;29;20379;-69
2020/12/13 12:14:35;;;;;;;7.30;5.15;;;;;;;10.20;89.84;100289.56;10170082;29;20492;-69
2020/12/13 12:19:39;;;;;;;6.28;3.03;;;;;;;9.69;98.08;100298.06;10170296;29;20056;-70
2020/12/13 12:24:40;;;;;;;7.72;4.13;;;;;;;9.39;100.00;100310.81;10172098;29;20059;-69
2020/12/13 12:29:41;;;;;;;6.30;3.35;;;;;;;9.29;100.00;100312.97;10171542;29;20056;-69
2020/12/13 12:34:43;;;;;;;7.60;4.05;;;;;;;9.25;100.00;100308.78;10175722;29;20052;-69
2020/12/13 12:39:44;;;;;;;6.15;2.45;;;;;;;9.43;100.00;100326.41;10180483;29;20071;-69
2020/12/13 12:44:45;;;;;;;5.80;3.08;;;;;;;10.87;93.76;100331.91;10180014;29;20052;-70
2020/12/13 12:49:46;;;;;;;5.07;2.85;;;;;;;12.76;85.15;100375.44;10180493;29;20048;-69
2020/12/13 12:54:48;;;;;;;5.72;3.05;;;;;;;13.31;76.39;100353.72;10179143;29;20495;-69
2020/12/13 13:05:00;;;;;;;12.00;6.27;;;;;;;12.93;73.24;100332.16;10179189;29;20044;-69
2020/12/13 13:15:29;;;;;;;7.97;4.15;;;;;;;9.82;87.50;100288.69;10167763;29;20046;-71
2020/12/13 13:20:30;;;;;;;8.93;6.85;;;;;;;9.55;87.32;100298.69;10176106;29;20047;-69
2020/12/13 13:25:31;;;;;;;6.57;2.25;;;;;;;9.42;90.65;100310.69;10174918;29;20420;-69
2020/12/13 13:30:32;;;;;;;4.47;1.50;;;;;;;9.13;90.92;100294.38;10179992;29;20099;-69
2020/12/13 13:35:35;;;;;;;5.63;3.53;;;;;;;8.91;96.37;100284.88;10179741;29;20044;-69
2020/12/13 13:40:36;;;;;;;7.95;5.10;;;;;;;8.93;98.40;100293.56;10179636;29;20055;-69
2020/12/13 13:50:43;;;;;;;9.50;7.57;;;;;;;8.60;100.00;100288.81;10178299;29;20055;-69
2020/12/13 14:00:49;;;;;;;14.18;10.10;;;;;;;8.51;100.00;100301.44;10178435;29;20044;-69
2020/12/13 14:05:53;;;;;;;13.40;12.20;;;;;;;8.68;100.00;100310.34;10178707;29;20079;-69
2020/12/13 14:10:54;;;;;;;6.07;4.57;;;;;;;8.56;100.00;100315.22;10178887;29;20050;-69
2020/12/13 14:15:55;;;;;;;11.40;4.45;;;;;;;8.48;100.00;100317.31;10178372;29;20043;-69
2020/12/13 14:20:56;;;;;;;4.18;2.13;;;;;;;8.31;100.00;100310.09;10177464;29;20046;-69
2020/12/13 14:25:58;;;;;;;4.28;1.85;;;;;;;8.33;100.00;100314.38;10176177;29;20056;-69
2020/12/13 14:30:59;;;;;;;5.32;2.40;;;;;;;8.31;100.00;100308.34;10178542;29;20048;-69
2020/12/13 14:36:00;;;;;;;5.00;1.98;;;;;;;8.46;100.00;100316.50;10177636;29;20048;-69
2020/12/13 14:41:04;;;;;;;5.20;2.00;;;;;;;8.29;100.00;100306.66;10177794;29;20050;-69
2020/12/13 14:46:10;;;;;;;13.05;5.55;;;;;;;8.09;100.00;100310.06;10163822;29;20059;-69
2020/12/13 14:51:12;;;;;;;8.32;3.33;;;;;;;7.84;100.00;100315.41;10177711;29;20047;-69
2020/12/13 14:56:14;;;;;;;35.45;15.75;;;;;;;7.64;100.00;100312.66;10176466;29;20127;-69
2020/12/13 15:01:15;;;;;;;9.68;3.08;;;;;;;7.31;100.00;100312.09;10176092;29;20136;-69
2020/12/13 15:06:27;;;;;;;9.00;3.72;;;;;;;7.20;100.00;100312.47;10175738;29;20065;-69
2020/12/13 15:11:31;;;;;;;25.65;12.40;;;;;;;6.94;100.00;100311.69;10162050;29;20044;-69
2020/12/13 15:17:03;;;;;;;26.38;12.65;;;;;;;6.89;100.00;100324.06;10173182;29;20044;-69
2020/12/13 15:22:06;;;;;;;11.40;4.57;;;;;;;6.75;100.00;100321.94;10175743;29;20059;-69
2020/12/13 15:27:08;;;;;;;25.45;11.45;;;;;;;6.64;100.00;100324.88;10175090;29;20054;-69
2020/12/13 15:32:09;;;;;;;9.63;4.13;;;;;;;6.51;100.00;100327.97;10162518;29;20037;-69
2020/12/13 15:37:11;;;;;;;15.88;7.65;;;;;;;6.50;100.00;100313.16;10156603;29;20099;-69
2020/12/13 15:42:12;;;;;;;17.77;7.47;;;;;;;6.18;100.00;100307.19;10164626;29;20052;-69
2020/12/13 15:47:13;;;;;;;18.08;9.18;;;;;;;6.04;100.00;100307.59;10171950;29;20495;-69
2020/12/13 15:52:15;;;;;;;9.07;4.65;;;;;;;5.95;100.00;100304.41;10173030;29;20523;-70
2020/12/13 15:57:17;;;;;;;12.35;5.70;;;;;;;5.95;100.00;100300.03;10174897;29;20056;-70
2020/12/13 16:02:18;;;;;;;8.23;3.53;;;;;;;5.98;100.00;100304.31;10171853;29;20052;-69
2020/12/13 16:12:21;;;;;;;8.95;3.63;;;;;;;5.90;100.00;100306.31;10172345;29;20050;-69
2020/12/13 16:17:22;;;;;;;18.60;8.00;;;;;;;5.79;100.00;100301.38;10165914;29;20051;-70
2020/12/13 16:22:24;;;;;;;16.42;6.07;;;;;;;5.91;100.00;100314.13;10165208;29;20051;-68
2020/12/13 16:27:25;;;;;;;39.15;12.18;;;;;;;6.19;100.00;100310.66;10171666;29;20059;-71
2020/12/13 16:32:26;;;;;;;25.77;8.45;;;;;;;6.24;100.00;100295.66;10172387;29;20452;-69
2020/12/13 16:37:32;;;;;;;23.42;9.48;;;;;;;6.15;100.00;100299.44;10174021;29;20047;-71
2020/12/13 16:42:39;;;;;;;30.67;9.70;;;;;;;6.01;100.00;100297.25;10171025;29;20501;-71
2020/12/13 16:47:50;;;;;;;13.07;4.53;;;;;;;5.95;100.00;100299.16;10172852;29;20070;-70
2020/12/13 16:58:12;;;;;;;6.93;3.65;;;;;;;6.05;100.00;100305.84;10172494;29;20127;-70
2020/12/13 17:03:13;;;;;;;12.35;4.70;;;;;;;5.93;100.00;100275.72;10170658;29;20043;-70
2020/12/13 17:08:16;;;;;;;15.13;6.18;;;;;;;5.98;100.00;100293.88;10169520;29;20046;-69
2020/12/13 17:13:17;;;;;;;20.60;8.05;;;;;;;5.94;100.00;100298.31;10168760;29;20055;-70
2020/12/13 17:18:19;;;;;;;13.82;5.07;;;;;;;5.91;100.00;100287.13;10167310;29;20032;-70
2020/12/13 17:23:21;;;;;;;13.77;5.40;;;;;;;5.97;100.00;100295.63;10176901;29;20045;-71
2020/12/13 17:28:23;;;;;;;14.15;5.40;;;;;;;5.98;100.00;100283.41;10175780;29;20056;-70
2020/12/13 17:33:24;;;;;;;13.45;6.60;;;;;;;5.92;100.00;100265.31;10176045;29;20056;-71
2020/12/13 17:38:25;;;;;;;10.65;4.93;;;;;;;5.92;100.00;100265.31;10173124;29;20058;-70
2020/12/13 17:43:33;;;;;;;10.35;5.25;;;;;;;5.87;100.00;100268.00;10179383;29;20412;-71
2020/12/13 17:48:55;;;;;;;11.63;10.43;;;;;;;5.67;100.00;100252.94;10173433;29;20107;-70
2020/12/13 17:54:09;;;;;;;6.57;3.63;;;;;;;5.68;100.00;100253.81;10175823;29;20044;-70
2020/12/13 17:59:35;;;;;;;8.00;4.32;;;;;;;5.55;100.00;100249.81;10177311;29;20037;-70
2020/12/13 18:04:32;;;;;;;9.50;4.53;;;;;;;5.59;100.00;100235.78;10174425;29;20055;-70
2020/12/13 18:09:35;;;;;;;9.18;4.78;;;;;;;5.64;100.00;100255.63;10176615;29;20040;-70
2020/12/13 18:14:38;;;;;;;8.73;5.15;;;;;;;5.57;100.00;100238.44;10175033;29;20547;-70
2020/12/13 18:19:41;;;;;;;11.70;6.55;;;;;;;5.63;100.00;100259.16;10175994;29;20507;-70
2020/12/13 18:24:43;;;;;;;9.25;4.97;;;;;;;5.68;100.00;100249.44;10175863;29;20051;-70
2020/12/13 18:29:44;;;;;;;7.57;4.07;;;;;;;5.74;100.00;100258.84;10174864;29;20052;-70
2020/12/13 18:34:45;;;;;;;7.97;3.90;;;;;;;5.68;100.00;100264.25;10172880;29;20392;-70
2020/12/13 18:39:46;;;;;;;9.70;4.43;;;;;;;5.74;100.00;100256.22;10163637;29;20508;-71
2020/12/13 18:44:48;;;;;;;7.57;3.67;;;;;;;5.86;100.00;100263.69;10173577;29;20040;-70
2020/12/13 18:49:49;;;;;;;7.68;5.03;;;;;;;5.76;100.00;100262.25;10172547;29;20052;-70
2020/12/13 18:54:50;;;;;;;9.00;5.00;;;;;;;5.72;100.00;100264.09;10173797;29;20047;-70
2020/12/13 18:59:51;;;;;;;5.35;3.45;;;;;;;5.71;100.00;100253.69;10173591;29;20048;-69
2020/12/13 19:04:54;;;;;;;6.90;4.00;;;;;;;5.68;100.00;100248.56;10172709;29;20040;-71
2020/12/13 19:09:56;;;;;;;8.38;4.05;;;;;;;5.67;100.00;100252.94;10173800;29;20119;-70
2020/12/13 19:14:57;;;;;;;7.90;3.30;;;;;;;5.66;100.00;100251.22;10166208;29;20039;-70
2020/12/13 19:19:59;;;;;;;8.52;4.00;;;;;;;5.68;100.00;100257.28;10172230;29;20051;-70
2020/12/13 19:25:00;;;;;;;9.38;3.75;;;;;;;5.68;100.00;100254.66;10171350;29;20044;-70
2020/12/13 19:30:07;;;;;;;7.82;3.83;;;;;;;5.61;100.00;100228.72;10174360;29;20056;-70
2020/12/13 19:35:10;;;;;;;7.85;3.72;;;;;;;5.51;100.00;100250.81;10175286;29;20052;-70
2020/12/13 19:40:12;;;;;;;9.02;4.00;;;;;;;5.43;100.00;100240.59;10174080;29;20055;-70
2020/12/13 19:45:13;;;;;;;8.38;3.95;;;;;;;5.61;100.00;100260.94;10173557;29;20072;-70
2020/12/13 19:50:14;;;;;;;6.80;3.95;;;;;;;5.56;100.00;100251.53;10172737;29;20052;-70
2020/12/13 19:55:15;;;;;;;9.75;3.90;;;;;;;5.62;100.00;100246.97;10173920;29;20044;-70
2020/12/13 20:00:16;;;;;;;8.13;3.78;;;;;;;5.49;100.00;100221.28;10164601;29;20055;-71
2020/12/13 20:05:21;;;;;;;8.77;4.30;;;;;;;5.27;100.00;100189.72;10172645;29;20051;-70
2020/12/13 20:10:22;;;;;;;7.13;4.40;;;;;;;5.19;100.00;100202.13;10170612;29;20420;-70
2020/12/13 20:26:34;;;;;;;12.48;6.15;;;;;;;4.75;100.00;100227.72;10172953;29;20839;-72
2020/12/13 20:33:00;;;;;;;16.60;6.18;;;;;;;4.60;100.00;100229.88;10136585;29;20056;-72
2020/12/13 21:10:45;;;;;;;13.50;5.47;;;;;;;4.86;100.00;100232.63;10178089;29;20098;-72
2020/12/13 21:20:04;;;;;;;9.80;4.60;;;;;;;4.79;100.00;100192.78;10180449;29;20058;-71
2020/12/13 21:26:25;;;;;;;14.60;4.85;;;;;;;4.64;100.00;100163.66;10176125;29;20059;-72
2020/12/13 21:31:10;;;;;;;13.25;4.95;;;;;;;4.68;100.00;100171.38;10151270;29;20504;-72
2020/12/13 21:41:29;;;;;;;10.68;5.15;;;;;;;4.79;100.00;100195.41;10178346;29;20040;-72
2020/12/13 21:46:49;;;;;;;8.15;4.47;;;;;;;4.89;100.00;100176.00;10177942;29;20040;-72
2020/12/13 21:51:50;;;;;;;10.52;4.82;;;;;;;4.96;100.00;100168.84;10177818;29;20044;-72
2020/12/13 21:57:19;;;;;;;13.48;5.32;;;;;;;5.00;100.00;100174.84;10175544;29;20052;-71
2020/12/13 22:28:22;;;;;;;10.50;5.65;;;;;;;5.20;100.00;100180.31;10176868;29;20441;-72
2020/12/13 22:33:24;;;;;;;10.73;6.28;;;;;;;5.16;100.00;100171.75;10175653;29;20044;-72
2020/12/13 22:38:25;;;;;;;11.45;6.55;;;;;;;5.12;100.00;100179.69;10177897;29;20063;-72
2020/12/13 22:43:27;;;;;;;9.63;5.65;;;;;;;5.04;100.00;100166.84;10176801;29;20508;-72
2020/12/13 22:48:29;;;;;;;8.77;5.38;;;;;;;4.91;100.00;100165.50;10176447;29;20099;-72
2020/12/13 22:53:30;;;;;;;11.77;7.45;;;;;;;4.82;100.00;100171.84;10177163;29;20118;-71
2020/12/13 22:58:31;;;;;;;12.15;7.03;;;;;;;4.83;100.00;100155.28;10150839;29;20048;-72
2020/12/13 23:03:32;;;;;;;10.60;5.57;;;;;;;4.97;100.00;100155.75;10173744;29;20385;-72
2020/12/13 23:08:33;;;;;;;11.85;6.45;;;;;;;4.97;100.00;100142.69;10175603;29;20112;-71
2020/12/13 23:13:35;;;;;;;12.70;6.13;;;;;;;5.01;100.00;100142.63;10168766;29;20055;-71
2020/12/13 23:18:36;;;;;;;13.73;6.85;;;;;;;5.01;100.00;100143.47;10175820;29;20040;-72
2020/12/13 23:23:37;;;;;;;8.68;4.75;;;;;;;5.03;100.00;100159.06;10175376;29;20040;-71
2020/12/13 23:28:38;;;;;;;14.57;6.60;;;;;;;5.09;100.00;100165.00;10175946;29;20055;-72
2020/12/13 23:33:39;;;;;;;13.35;7.30;;;;;;;5.08;100.00;100145.00;10174583;29;20036;-72
2020/12/13 23:38:40;;;;;;;11.38;7.00;;;;;;;4.97;100.00;100129.63;10176110;29;20055;-72
2020/12/13 23:43:41;;;;;;;8.75;5.15;;;;;;;5.02;100.00;100119.06;10165366;29;20056;-72
2020/12/13 23:48:42;;;;;;;13.00;5.95;;;;;;;5.00;100.00;100113.03;10145719;29;20055;-72
2020/12/13 23:53:44;;;;;;;11.30;5.45;;;;;;;4.88;100.00;100105.56;10174321;29;20044;-72
2020/12/13 23:58:45;;;;;;;16.58;5.85;;;;;;;4.94;100.00;100105.38;10173985;29;20052;-72
